createdAt,value
2018-07-19T00:00:56.869Z,60.70
2018-07-19T00:03:28.865Z,60.40
2018-07-19T00:06:00.771Z,60.00
2018-07-19T00:08:32.924Z,60.10
2018-07-19T00:13:36.079Z,59.80
2018-07-19T00:16:08.079Z,59.70
2018-07-19T00:18:40.273Z,59.70
2018-07-19T00:21:12.198Z,59.50
2018-07-19T00:23:44.195Z,59.70
2018-07-19T00:26:16.174Z,59.60
2018-07-19T00:28:48.293Z,59.60
2018-07-19T00:31:20.327Z,59.80
2018-07-19T00:33:52.491Z,60.00
2018-07-19T00:36:24.351Z,60.20
2018-07-19T00:38:56.592Z,60.60
2018-07-19T00:41:28.648Z,61.10
2018-07-19T00:44:00.690Z,61.60
2018-07-19T00:46:32.717Z,62.00
2018-07-19T00:49:04.546Z,62.60
2018-07-19T00:51:36.339Z,62.70
2018-07-19T00:54:08.253Z,63.00
2018-07-19T00:56:39.949Z,62.80
2018-07-19T00:59:11.657Z,62.40
2018-07-19T01:01:43.493Z,63.00
2018-07-19T01:04:15.377Z,63.30
2018-07-19T01:06:47.398Z,63.20
2018-07-19T01:09:19.080Z,63.30
2018-07-19T01:11:50.833Z,63.40
2018-07-19T01:14:23.360Z,63.80
2018-07-19T01:16:55.122Z,63.70
2018-07-19T01:19:26.859Z,64.80
2018-07-19T01:21:58.701Z,64.30
2018-07-19T01:24:30.569Z,64.20
2018-07-19T01:27:02.594Z,64.30
2018-07-19T01:29:34.325Z,64.50
2018-07-19T01:32:06.297Z,64.70
2018-07-19T01:34:38.008Z,65.20
2018-07-19T01:37:09.863Z,65.30
2018-07-19T01:39:41.633Z,65.40
2018-07-19T01:42:28.715Z,65.30
2018-07-19T01:45:00.653Z,65.30
2018-07-19T01:47:32.444Z,65.50
2018-07-19T01:50:04.460Z,65.60
2018-07-19T01:52:36.072Z,65.90
2018-07-19T01:55:08.218Z,66.00
2018-07-19T01:57:40.066Z,66.20
2018-07-19T02:00:11.970Z,66.10
2018-07-19T02:02:43.510Z,65.90
2018-07-19T02:05:15.387Z,66.10
2018-07-19T02:07:47.196Z,66.10
2018-07-19T02:10:18.825Z,65.90
2018-07-19T02:12:50.584Z,66.00
2018-07-19T02:15:22.320Z,66.10
2018-07-19T02:17:53.990Z,66.20
2018-07-19T02:20:25.649Z,66.60
2018-07-19T02:22:57.496Z,66.60
2018-07-19T02:25:29.356Z,66.80
2018-07-19T02:28:01.022Z,67.20
2018-07-19T02:30:32.874Z,67.10
2018-07-19T02:33:04.645Z,67.20
2018-07-19T02:35:36.309Z,67.10
2018-07-19T02:38:08.171Z,67.10
2018-07-19T02:40:40.061Z,67.20
2018-07-19T02:43:11.928Z,66.80
2018-07-19T02:45:43.656Z,66.70
2018-07-19T02:48:15.542Z,66.60
2018-07-19T02:50:47.177Z,66.70
2018-07-19T02:53:19.042Z,66.60
2018-07-19T02:55:50.880Z,66.20
2018-07-19T02:58:22.783Z,66.00
2018-07-19T03:00:54.508Z,66.20
2018-07-19T03:03:26.281Z,66.50
2018-07-19T03:05:58.097Z,66.70
2018-07-19T03:08:29.993Z,66.80
2018-07-19T03:11:01.653Z,66.70
2018-07-19T03:13:33.491Z,66.60
2018-07-19T03:16:05.379Z,66.60
2018-07-19T03:18:37.159Z,66.70
2018-07-19T03:21:08.889Z,67.10
2018-07-19T03:23:41.010Z,67.30
2018-07-19T03:26:13.206Z,67.40
2018-07-19T03:28:45.032Z,67.60
2018-07-19T03:31:17.185Z,67.90
2018-07-19T03:33:49.241Z,67.90
2018-07-19T03:38:52.308Z,69.00
2018-07-19T03:41:24.170Z,68.20
2018-07-19T03:43:55.979Z,67.90
2018-07-19T03:46:27.709Z,68.30
2018-07-19T03:48:59.449Z,68.50
2018-07-19T03:51:31.132Z,68.40
2018-07-19T03:54:02.981Z,68.70
2018-07-19T03:56:34.713Z,68.80
2018-07-19T03:59:06.592Z,69.00
2018-07-19T04:01:38.394Z,69.30
2018-07-19T04:04:10.137Z,69.20
2018-07-19T04:06:41.857Z,69.60
2018-07-19T04:09:13.536Z,69.80
2018-07-19T04:11:45.269Z,69.80
2018-07-19T04:14:16.941Z,69.90
2018-07-19T04:16:48.622Z,69.90
2018-07-19T04:19:20.399Z,70.10
2018-07-19T04:21:52.106Z,70.00
2018-07-19T04:24:23.965Z,70.20
2018-07-19T04:26:55.777Z,70.50
2018-07-19T04:29:27.688Z,70.60
2018-07-19T04:31:59.371Z,70.50
2018-07-19T04:34:31.258Z,69.90
2018-07-19T04:37:03.117Z,69.20
2018-07-19T04:39:34.781Z,69.10
2018-07-19T04:42:06.789Z,69.00
2018-07-19T04:44:38.485Z,68.80
2018-07-19T04:49:41.296Z,68.70
2018-07-19T04:52:13.033Z,68.50
2018-07-19T04:54:45.124Z,69.20
2018-07-19T04:57:16.840Z,68.20
2018-07-19T04:59:48.499Z,67.50
2018-07-19T05:02:20.642Z,66.90
2018-07-19T05:04:52.413Z,66.80
2018-07-19T05:07:24.113Z,66.70
2018-07-19T05:09:55.965Z,66.40
2018-07-19T05:12:27.793Z,66.30
2018-07-19T05:14:59.557Z,66.40
2018-07-19T05:17:31.233Z,66.60
2018-07-19T05:20:03.068Z,66.80
2018-07-19T05:22:34.865Z,66.70
2018-07-19T05:25:06.743Z,66.70
2018-07-19T05:27:38.581Z,66.40
2018-07-19T05:30:10.239Z,66.20
2018-07-19T05:32:41.893Z,66.80
2018-07-19T05:35:13.624Z,65.50
2018-07-19T05:37:45.612Z,64.80
2018-07-19T05:40:17.512Z,64.80
2018-07-19T05:42:49.440Z,64.30
2018-07-19T05:45:21.385Z,64.00
2018-07-19T05:47:53.337Z,63.80
2018-07-19T05:50:25.004Z,63.90
2018-07-19T05:52:56.787Z,63.60
2018-07-19T05:55:28.526Z,63.30
2018-07-19T05:58:00.192Z,63.00
2018-07-19T06:00:32.074Z,62.40
2018-07-19T06:03:03.813Z,62.20
2018-07-19T06:05:35.764Z,61.90
2018-07-19T06:08:07.526Z,61.70
2018-07-19T06:10:39.198Z,61.30
2018-07-19T06:13:10.933Z,60.70
2018-07-19T06:15:42.600Z,60.60
2018-07-19T06:20:45.456Z,59.60
2018-07-19T06:23:17.385Z,60.00
2018-07-19T06:25:49.108Z,59.40
2018-07-19T06:28:20.934Z,59.10
2018-07-19T06:30:52.748Z,58.60
2018-07-19T06:33:24.625Z,58.90
2018-07-19T06:35:56.394Z,58.90
2018-07-19T06:38:28.306Z,58.70
2018-07-19T06:41:00.094Z,58.40
2018-07-19T06:43:31.984Z,58.20
2018-07-19T06:46:03.677Z,58.20
2018-07-19T06:48:35.451Z,58.20
2018-07-19T06:51:07.423Z,57.50
2018-07-19T06:53:39.282Z,57.20
2018-07-19T06:56:11.087Z,56.90
2018-07-19T06:58:42.922Z,56.80
2018-07-19T07:01:14.665Z,56.20
2018-07-19T07:03:46.326Z,56.10
2018-07-19T07:06:17.996Z,56.10
2018-07-19T07:08:49.930Z,55.50
2018-07-19T07:11:21.616Z,55.40
2018-07-19T07:13:53.273Z,54.40
2018-07-19T07:16:25.003Z,54.40
2018-07-19T07:18:56.797Z,54.40
2018-07-19T07:21:28.630Z,54.20
2018-07-19T07:24:00.289Z,53.60
2018-07-19T07:26:32.076Z,53.60
2018-07-19T07:29:03.794Z,53.90
2018-07-19T07:31:35.582Z,53.80
2018-07-19T07:34:07.355Z,53.60
2018-07-19T07:36:39.186Z,53.60
2018-07-19T07:39:11.806Z,53.20
2018-07-19T07:41:43.620Z,52.70
2018-07-19T07:44:15.561Z,52.50
2018-07-19T07:46:47.324Z,52.80
2018-07-19T07:49:19.304Z,51.90
2018-07-19T07:51:51.018Z,52.00
2018-07-19T07:54:22.846Z,51.80
2018-07-19T07:56:54.685Z,51.50
2018-07-19T07:59:27.387Z,51.50
2018-07-19T08:01:59.253Z,50.40
2018-07-19T08:04:31.192Z,49.80
2018-07-19T08:07:03.157Z,50.40
2018-07-19T08:09:34.835Z,49.30
2018-07-19T08:12:06.601Z,49.50
2018-07-19T08:14:38.530Z,49.00
2018-07-19T08:17:10.442Z,49.20
2018-07-19T08:19:42.165Z,48.90
2018-07-19T08:22:13.942Z,48.30
2018-07-19T08:24:45.958Z,48.20
2018-07-19T08:27:17.856Z,48.40
2018-07-19T08:29:49.501Z,48.00
2018-07-19T08:32:21.398Z,47.70
2018-07-19T08:34:53.217Z,47.90
2018-07-19T08:37:25.073Z,47.70
2018-07-19T08:39:56.990Z,47.90
2018-07-19T08:42:28.797Z,48.30
2018-07-19T08:45:00.794Z,47.50
2018-07-19T08:47:32.725Z,46.30
2018-07-19T08:50:04.525Z,45.50
2018-07-19T08:52:36.264Z,45.30
2018-07-19T08:55:08.103Z,46.00
2018-07-19T08:57:39.973Z,45.40
2018-07-19T09:00:11.750Z,45.80
2018-07-19T09:02:43.486Z,45.60
2018-07-19T09:05:15.500Z,45.40
2018-07-19T09:07:47.221Z,43.50
2018-07-19T09:10:19.280Z,43.50
2018-07-19T09:12:51.032Z,43.50
2018-07-19T09:15:22.948Z,43.60
2018-07-19T09:17:54.788Z,43.50
2018-07-19T09:20:26.529Z,42.50
2018-07-19T09:22:58.410Z,41.10
2018-07-19T09:25:30.154Z,42.40
2018-07-19T09:28:02.047Z,41.80
2018-07-19T09:30:33.908Z,41.80
2018-07-19T09:33:05.649Z,42.20
2018-07-19T09:35:37.474Z,41.60
2018-07-19T09:38:09.261Z,41.70
2018-07-19T09:40:40.928Z,40.90
2018-07-19T09:43:12.701Z,39.60
2018-07-19T09:45:44.629Z,39.80
2018-07-19T09:48:16.626Z,39.20
2018-07-19T09:50:48.480Z,39.80
2018-07-19T09:53:20.199Z,39.50
2018-07-19T09:55:52.120Z,40.90
2018-07-19T09:58:23.973Z,40.20
2018-07-19T10:01:00.397Z,40.90
2018-07-19T10:03:32.404Z,40.50
2018-07-19T10:06:04.473Z,40.30
2018-07-19T10:08:36.198Z,40.30
2018-07-19T10:13:39.010Z,39.90
2018-07-19T10:16:10.941Z,39.70
2018-07-19T10:18:42.800Z,39.40
2018-07-19T10:21:14.818Z,38.90
2018-07-19T10:23:46.509Z,38.90
2018-07-19T10:26:18.318Z,38.80
2018-07-19T10:28:50.370Z,38.70
2018-07-19T10:31:22.029Z,38.70
2018-07-19T10:33:53.803Z,38.50
2018-07-19T10:36:25.887Z,38.50
2018-07-19T10:38:57.745Z,38.20
2018-07-19T10:44:00.703Z,38.10
2018-07-19T10:46:32.613Z,38.90
2018-07-19T10:49:04.465Z,38.40
2018-07-19T10:51:36.315Z,37.80
2018-07-19T10:54:08.145Z,37.90
2018-07-19T10:56:39.820Z,38.10
2018-07-19T10:59:11.572Z,37.80
2018-07-19T11:01:43.422Z,37.70
2018-07-19T11:04:15.337Z,37.50
2018-07-19T11:06:47.170Z,36.50
2018-07-19T11:09:18.969Z,36.50
2018-07-19T11:11:50.902Z,36.00
2018-07-19T11:14:22.538Z,36.80
2018-07-19T11:16:54.200Z,37.20
2018-07-19T11:19:25.939Z,36.00
2018-07-19T11:21:57.752Z,36.20
2018-07-19T11:24:29.502Z,36.50
2018-07-19T11:27:01.349Z,36.60
2018-07-19T11:29:33.166Z,35.70
2018-07-19T11:32:04.942Z,35.40
2018-07-19T11:34:36.821Z,33.80
2018-07-19T11:37:08.558Z,34.80
2018-07-19T11:39:40.245Z,33.90
2018-07-19T11:42:12.100Z,34.80
2018-07-19T11:44:43.856Z,33.60
2018-07-19T11:47:15.617Z,33.50
2018-07-19T11:49:47.576Z,33.40
2018-07-19T11:52:19.649Z,32.80
2018-07-19T11:54:51.608Z,33.20
2018-07-19T11:57:23.462Z,33.90
2018-07-19T11:59:55.362Z,33.50
2018-07-19T12:02:27.004Z,33.30
2018-07-19T12:04:58.821Z,33.00
2018-07-19T12:07:30.502Z,31.90
2018-07-19T12:10:02.279Z,32.60
2018-07-19T12:12:34.021Z,32.50
2018-07-19T12:15:06.076Z,31.40
2018-07-19T12:17:37.743Z,31.70
2018-07-19T12:20:09.824Z,31.60
2018-07-19T12:22:41.673Z,32.00
2018-07-19T12:25:13.524Z,32.10
2018-07-19T12:27:45.274Z,31.90
2018-07-19T12:30:17.077Z,31.20
2018-07-19T12:32:48.887Z,32.00
2018-07-19T12:35:20.763Z,31.70
2018-07-19T12:37:52.665Z,32.00
2018-07-19T12:40:24.509Z,31.40
2018-07-19T12:42:56.358Z,32.30
2018-07-19T12:45:28.248Z,32.10
2018-07-19T12:47:59.963Z,31.80
2018-07-19T12:50:31.611Z,32.20
2018-07-19T12:53:03.405Z,32.50
2018-07-19T12:55:35.063Z,32.20
2018-07-19T12:58:06.888Z,32.00
2018-07-19T13:00:38.482Z,31.90
2018-07-19T13:03:10.356Z,32.90
2018-07-19T13:05:42.098Z,32.80
2018-07-19T13:08:13.927Z,32.40
2018-07-19T13:10:45.617Z,32.40
2018-07-19T13:13:17.593Z,32.80
2018-07-19T13:15:50.220Z,32.00
2018-07-19T13:18:22.019Z,32.20
2018-07-19T13:20:53.894Z,31.80
2018-07-19T13:23:25.622Z,31.60
2018-07-19T13:25:57.468Z,31.30
2018-07-19T13:28:29.245Z,30.90
2018-07-19T13:31:00.905Z,31.20
2018-07-19T13:33:32.957Z,31.30
2018-07-19T13:36:04.594Z,30.40
2018-07-19T13:38:36.397Z,30.90
2018-07-19T13:41:08.813Z,30.70
2018-07-19T13:43:40.628Z,30.40
2018-07-19T13:46:12.731Z,30.00
2018-07-19T13:48:44.628Z,29.90
2018-07-19T13:51:16.537Z,29.80
2018-07-19T13:54:19.223Z,30.30
2018-07-19T13:56:51.019Z,30.30
2018-07-19T13:59:22.893Z,30.40
2018-07-19T14:01:54.515Z,29.90
2018-07-19T14:04:26.212Z,30.00
2018-07-19T14:06:57.932Z,29.90
2018-07-19T14:09:29.552Z,29.60
2018-07-19T14:12:01.234Z,29.60
2018-07-19T14:14:32.968Z,28.80
2018-07-19T14:17:04.712Z,28.70
2018-07-19T14:19:36.582Z,29.10
2018-07-19T14:22:08.417Z,29.40
2018-07-19T14:24:40.083Z,29.30
2018-07-19T14:27:11.966Z,29.50
2018-07-19T14:29:43.802Z,27.90
2018-07-19T14:32:15.581Z,28.60
2018-07-19T14:34:47.337Z,29.30
2018-07-19T14:37:19.151Z,29.30
2018-07-19T14:39:51.141Z,29.50
2018-07-19T14:42:22.821Z,29.40
2018-07-19T14:44:54.484Z,29.30
2018-07-19T14:47:26.322Z,29.40
2018-07-19T14:49:58.081Z,29.60
2018-07-19T14:52:29.764Z,28.60
2018-07-19T14:55:01.594Z,29.20
2018-07-19T14:57:33.365Z,29.50
2018-07-19T15:00:05.665Z,28.70
2018-07-19T15:02:37.534Z,28.80
2018-07-19T15:05:09.377Z,29.00
2018-07-19T15:07:41.221Z,28.80
2018-07-19T15:10:13.028Z,28.90
2018-07-19T15:12:44.725Z,29.00
2018-07-19T15:15:16.620Z,28.50
2018-07-19T15:17:48.266Z,28.80
2018-07-19T15:20:20.047Z,28.60
2018-07-19T15:22:51.860Z,29.10
2018-07-19T15:25:23.649Z,29.10
2018-07-19T15:27:55.525Z,28.80
2018-07-19T15:30:27.291Z,28.40
2018-07-19T15:32:59.007Z,29.00
2018-07-19T15:35:30.788Z,29.50
2018-07-19T15:38:02.725Z,29.70
2018-07-19T15:40:34.494Z,29.40
2018-07-19T15:43:06.363Z,28.90
2018-07-19T15:45:38.107Z,29.20
2018-07-19T15:48:10.377Z,29.10
2018-07-19T15:50:42.240Z,29.10
2018-07-19T15:53:14.009Z,29.20
2018-07-19T15:55:45.782Z,29.40
2018-07-19T15:58:17.718Z,29.60
2018-07-19T16:00:49.485Z,29.50
2018-07-19T16:03:21.263Z,29.60
2018-07-19T16:05:53.098Z,29.60
2018-07-19T16:08:24.956Z,29.50
2018-07-19T16:10:56.734Z,29.80
2018-07-19T16:13:28.506Z,29.70
2018-07-19T16:16:00.386Z,28.60
2018-07-19T16:18:32.144Z,29.20
2018-07-19T16:21:03.886Z,29.40
2018-07-19T16:23:35.669Z,28.50
2018-07-19T16:26:07.608Z,28.90
2018-07-19T16:28:39.374Z,28.60
2018-07-19T16:31:11.093Z,29.00
2018-07-19T16:33:42.884Z,29.00
2018-07-19T16:36:14.629Z,28.50
2018-07-19T16:38:46.404Z,28.70
2018-07-19T16:41:18.132Z,29.00
2018-07-19T16:43:50.041Z,29.20
2018-07-19T16:46:21.787Z,28.90
2018-07-19T16:48:53.659Z,29.10
2018-07-19T16:51:25.286Z,29.40
2018-07-19T16:53:57.252Z,30.00
2018-07-19T16:56:29.215Z,29.10
2018-07-19T16:59:00.949Z,29.60
2018-07-19T17:01:32.620Z,29.90
2018-07-19T17:04:04.361Z,30.10
2018-07-19T17:06:36.329Z,30.00
2018-07-19T17:09:10.912Z,29.80
2018-07-19T17:11:42.611Z,29.60
2018-07-19T17:14:14.335Z,29.90
2018-07-19T17:16:46.153Z,29.70
2018-07-19T17:19:17.885Z,29.90
2018-07-19T17:21:49.683Z,30.00
2018-07-19T17:24:21.451Z,30.10
2018-07-19T17:26:53.196Z,30.30
2018-07-19T17:29:24.926Z,30.40
2018-07-19T17:31:56.609Z,30.60
2018-07-19T17:34:28.348Z,30.80
2018-07-19T17:37:00.115Z,31.00
2018-07-19T17:39:31.880Z,31.20
2018-07-19T17:42:03.718Z,31.50
2018-07-19T17:44:35.511Z,31.70
2018-07-19T17:47:07.249Z,31.50
2018-07-19T17:49:39.089Z,31.50
2018-07-19T17:52:11.011Z,31.50
2018-07-19T17:54:42.923Z,31.70
2018-07-19T17:57:14.710Z,32.80
2018-07-19T17:59:46.572Z,32.40
2018-07-19T18:02:18.236Z,31.90
2018-07-19T18:04:49.884Z,32.10
2018-07-19T18:07:21.663Z,32.80
2018-07-19T18:09:53.424Z,33.50
2018-07-19T18:12:25.061Z,33.80
2018-07-19T18:14:56.942Z,33.80
2018-07-19T18:17:28.608Z,34.00
2018-07-19T18:20:00.329Z,34.30
2018-07-19T18:22:32.064Z,34.80
2018-07-19T18:25:03.961Z,35.30
2018-07-19T18:27:35.754Z,35.30
2018-07-19T18:30:09.337Z,35.60
2018-07-19T18:32:40.981Z,35.80
2018-07-19T18:35:12.801Z,36.30
2018-07-19T18:37:44.770Z,36.40
2018-07-19T18:40:16.440Z,37.30
2018-07-19T18:42:48.375Z,37.80
2018-07-19T18:45:20.132Z,38.00
2018-07-19T18:47:51.965Z,39.10
2018-07-19T18:50:23.918Z,40.30
2018-07-19T18:52:55.730Z,41.60
2018-07-19T18:55:27.415Z,42.60
2018-07-19T18:57:59.447Z,43.10
2018-07-19T19:00:31.525Z,42.80
2018-07-19T19:03:03.193Z,43.40
2018-07-19T19:05:34.962Z,44.10
2018-07-19T19:08:06.910Z,45.00
2018-07-19T19:10:38.679Z,45.80
2018-07-19T19:13:10.545Z,46.30
2018-07-19T19:15:42.389Z,45.50
2018-07-19T19:18:14.054Z,44.50
2018-07-19T19:20:45.708Z,43.50
2018-07-19T19:23:17.708Z,44.10
2018-07-19T19:25:49.321Z,44.60
2018-07-19T19:28:21.073Z,43.90
2018-07-19T19:30:52.884Z,43.90
2018-07-19T19:33:24.613Z,45.20
2018-07-19T19:35:56.349Z,45.40
2018-07-19T19:38:28.126Z,45.90
2018-07-19T19:40:59.913Z,46.60
2018-07-19T19:43:31.540Z,47.20
2018-07-19T19:46:03.209Z,47.50
2018-07-19T19:48:36.436Z,47.70
2018-07-19T19:51:08.460Z,47.80
2018-07-19T19:53:40.112Z,47.70
2018-07-19T19:56:11.952Z,47.10
2018-07-19T19:58:43.824Z,47.50
2018-07-19T20:01:15.503Z,48.30
2018-07-19T20:03:47.368Z,49.40
2018-07-19T20:06:19.115Z,50.10
2018-07-19T20:08:51.109Z,50.90
2018-07-19T20:11:22.836Z,51.60
2018-07-19T20:13:54.506Z,52.40
2018-07-19T20:16:26.386Z,52.80
2018-07-19T20:19:10.177Z,52.90
2018-07-19T20:21:55.180Z,53.20
2018-07-19T20:24:40.434Z,53.40
2018-07-19T20:27:30.935Z,53.40
2018-07-19T20:30:11.082Z,53.40
2018-07-19T20:32:50.053Z,52.90
2018-07-19T20:35:28.626Z,52.70
2018-07-19T20:38:11.545Z,52.30
2018-07-19T20:40:44.344Z,52.10
2018-07-19T20:43:21.955Z,52.00
2018-07-19T20:45:59.736Z,52.00
2018-07-19T20:48:32.016Z,51.80
2018-07-19T20:51:03.690Z,51.70
2018-07-19T20:53:35.444Z,51.50
2018-07-19T20:56:12.421Z,51.50
2018-07-19T20:58:50.078Z,51.50
2018-07-19T21:01:27.715Z,51.50
2018-07-19T21:04:05.372Z,51.60
2018-07-19T21:06:42.516Z,51.60
2018-07-19T21:09:19.842Z,51.70
2018-07-19T21:11:58.657Z,51.80
2018-07-19T21:17:19.604Z,52.10
2018-07-19T21:20:02.854Z,52.40
2018-07-19T21:22:45.589Z,52.90
2018-07-19T21:25:33.020Z,53.40
2018-07-19T21:28:16.290Z,54.00
2018-07-19T21:30:53.907Z,54.90
2018-07-19T21:33:29.415Z,55.40
2018-07-19T21:36:06.287Z,55.60
2018-07-19T21:38:38.710Z,55.80
2018-07-19T21:41:10.442Z,56.00
2018-07-19T21:43:42.155Z,56.40
2018-07-19T21:46:13.929Z,56.90
2018-07-19T21:48:45.648Z,57.10
2018-07-19T21:51:17.467Z,57.40
2018-07-19T21:53:49.252Z,57.70
2018-07-19T21:56:21.065Z,58.00
2018-07-19T21:58:52.702Z,58.30
2018-07-19T22:01:24.594Z,58.50
2018-07-19T22:03:56.323Z,57.90
2018-07-19T22:06:28.033Z,57.50
2018-07-19T22:08:59.964Z,57.10
2018-07-19T22:11:31.550Z,57.20
2018-07-19T22:14:03.429Z,57.20
2018-07-19T22:16:35.428Z,57.50
2018-07-19T22:19:07.400Z,57.50
2018-07-19T22:21:39.085Z,57.50
2018-07-19T22:24:10.904Z,57.80
2018-07-19T22:26:42.687Z,58.10
2018-07-19T22:29:14.309Z,58.00
2018-07-19T22:31:45.924Z,58.40
2018-07-19T22:34:17.738Z,58.00
2018-07-19T22:36:49.449Z,58.10
2018-07-19T22:39:21.329Z,58.10
2018-07-19T22:41:53.162Z,58.50
2018-07-19T22:44:24.879Z,59.00
2018-07-19T22:46:56.662Z,59.60
2018-07-19T22:49:28.278Z,60.30
2018-07-19T22:52:00.001Z,60.70
2018-07-19T22:54:31.774Z,60.60
2018-07-19T22:57:03.407Z,60.50
2018-07-19T22:59:35.182Z,60.70
2018-07-19T23:02:06.937Z,61.10
2018-07-19T23:04:38.753Z,61.30
2018-07-19T23:07:10.449Z,61.50
2018-07-19T23:09:42.135Z,61.60
2018-07-19T23:12:13.937Z,61.70
2018-07-19T23:14:45.853Z,61.60
2018-07-19T23:17:17.502Z,61.70
2018-07-19T23:19:49.292Z,61.40
2018-07-19T23:22:21.093Z,61.50
2018-07-19T23:24:52.873Z,61.70
2018-07-19T23:27:24.729Z,62.10
2018-07-19T23:29:56.515Z,62.60
2018-07-19T23:32:28.345Z,62.40
2018-07-19T23:35:00.276Z,62.30
2018-07-19T23:37:36.336Z,62.30
2018-07-19T23:40:13.879Z,62.10
2018-07-19T23:42:52.195Z,61.90
2018-07-19T23:46:01.688Z,62.10
2018-07-19T23:48:33.372Z,62.10
2018-07-19T23:51:05.090Z,62.40
2018-07-19T23:53:36.779Z,62.60
2018-07-19T23:56:08.705Z,62.70
2018-07-19T23:58:40.546Z,62.70
